createdAt,value
2022-12-14T00:01:56.611Z,8.15
2022-12-14T00:04:24.350Z,9.43
2022-12-14T00:06:52.701Z,9.30
2022-12-14T00:09:20.852Z,10.82
2022-12-14T00:11:50.370Z,7.15
2022-12-14T00:14:18.245Z,8.07
2022-12-14T00:16:46.235Z,8.30
2022-12-14T00:19:14.196Z,8.02
2022-12-14T00:21:42.156Z,8.02
2022-12-14T00:24:10.650Z,11.52
2022-12-14T00:26:38.503Z,10.40
2022-12-14T00:29:06.623Z,10.35
2022-12-14T00:31:34.927Z,17.35
2022-12-14T00:34:02.837Z,9.75
2022-12-14T00:36:31.826Z,9.30
2022-12-14T00:39:00.148Z,8.63
2022-12-14T00:41:28.167Z,13.13
2022-12-14T00:43:56.177Z,9.05
2022-12-14T00:46:24.488Z,10.18
2022-12-14T00:48:52.454Z,9.52
2022-12-14T00:51:20.305Z,8.02
2022-12-14T00:53:48.018Z,9.57
2022-12-14T00:56:15.922Z,10.23
2022-12-14T00:58:43.750Z,8.65
2022-12-14T01:01:15.911Z,8.48
2022-12-14T01:03:44.161Z,7.85
2022-12-14T01:06:23.300Z,8.45
2022-12-14T01:08:51.272Z,7.05
2022-12-14T01:11:19.308Z,9.07
2022-12-14T01:13:49.745Z,6.28
2022-12-14T01:16:18.478Z,11.73
2022-12-14T01:18:46.523Z,6.40
2022-12-14T01:21:22.547Z,6.13
2022-12-14T01:24:00.304Z,4.80
2022-12-14T01:26:30.367Z,7.82
2022-12-14T01:28:59.588Z,7.10
2022-12-14T01:31:36.030Z,5.78
2022-12-14T01:34:04.505Z,7.47
2022-12-14T01:36:35.072Z,8.00
2022-12-14T01:39:06.716Z,5.03
2022-12-14T01:41:38.799Z,5.20
2022-12-14T01:44:09.750Z,6.88
2022-12-14T01:46:44.442Z,5.25
2022-12-14T01:49:20.466Z,5.60
2022-12-14T01:52:30.280Z,4.55
2022-12-14T01:55:04.443Z,3.58
2022-12-14T01:57:39.312Z,7.13
2022-12-14T02:00:10.123Z,6.18
2022-12-14T02:02:41.612Z,9.68
2022-12-14T02:05:11.226Z,7.45
2022-12-14T02:07:41.202Z,5.22
2022-12-14T02:10:09.861Z,6.10
2022-12-14T02:12:44.498Z,5.93
2022-12-14T02:15:14.736Z,9.27
2022-12-14T02:17:47.223Z,6.90
2022-12-14T02:20:16.397Z,6.15
2022-12-14T02:22:47.110Z,7.78
2022-12-14T02:25:22.153Z,7.85
2022-12-14T02:28:30.876Z,5.82
2022-12-14T02:31:15.465Z,4.75
2022-12-14T02:33:59.490Z,7.18
2022-12-14T02:36:44.979Z,8.18
2022-12-14T02:39:28.251Z,13.93
2022-12-14T02:42:11.167Z,6.07
2022-12-14T02:45:09.121Z,8.82
2022-12-14T02:47:49.654Z,11.52
2022-12-14T02:50:23.647Z,9.30
2022-12-14T02:53:02.844Z,10.30
2022-12-14T02:55:34.022Z,6.10
2022-12-14T02:58:12.816Z,6.07
2022-12-14T03:00:41.086Z,6.38
2022-12-14T03:03:09.103Z,7.45
2022-12-14T03:05:37.144Z,5.30
2022-12-14T03:08:16.887Z,8.85
2022-12-14T03:10:51.137Z,5.35
2022-12-14T03:13:41.037Z,6.70
2022-12-14T03:16:13.623Z,6.22
2022-12-14T03:18:45.945Z,8.80
2022-12-14T03:21:18.661Z,6.68
2022-12-14T03:23:49.164Z,8.50
2022-12-14T03:26:41.685Z,9.30
2022-12-14T03:29:22.733Z,10.93
2022-12-14T03:31:56.242Z,10.32
2022-12-14T03:37:19.889Z,11.50
2022-12-14T03:39:48.265Z,14.15
2022-12-14T03:42:22.931Z,16.13
2022-12-14T03:45:05.202Z,15.45
2022-12-14T03:48:03.575Z,24.13
2022-12-14T03:50:53.224Z,20.08
2022-12-14T03:53:41.592Z,25.15
2022-12-14T03:56:34.400Z,26.60
2022-12-14T03:59:43.119Z,30.95
2022-12-14T04:02:22.207Z,31.60
2022-12-14T04:05:00.245Z,29.75
2022-12-14T04:08:01.852Z,26.85
2022-12-14T04:11:03.046Z,30.13
2022-12-14T04:13:56.950Z,29.10
2022-12-14T04:16:48.576Z,23.00
2022-12-14T04:19:40.028Z,35.10
2022-12-14T04:22:16.485Z,38.33
2022-12-14T04:25:08.249Z,32.63
2022-12-14T04:27:44.751Z,40.83
2022-12-14T04:30:13.719Z,30.75
2022-12-14T04:32:52.716Z,36.00
2022-12-14T04:35:36.508Z,32.35
2022-12-14T04:38:10.433Z,37.42
2022-12-14T04:40:55.924Z,36.70
2022-12-14T04:43:30.453Z,41.72
2022-12-14T04:46:11.701Z,32.15
2022-12-14T04:48:51.268Z,38.92
2022-12-14T04:51:26.130Z,40.75
2022-12-14T04:54:01.382Z,37.92
2022-12-14T04:56:39.901Z,36.28
2022-12-14T04:59:08.301Z,39.97
2022-12-14T05:01:50.261Z,36.88
2022-12-14T05:04:39.241Z,32.22
2022-12-14T05:07:39.103Z,36.53
2022-12-14T05:10:15.633Z,41.70
2022-12-14T05:12:52.984Z,38.97
2022-12-14T05:15:30.838Z,44.33
2022-12-14T05:18:03.796Z,36.65
2022-12-14T05:20:32.016Z,40.13
2022-12-14T05:22:59.952Z,34.88
2022-12-14T05:25:27.971Z,44.60
2022-12-14T05:27:56.518Z,48.88
2022-12-14T05:30:24.549Z,51.47
2022-12-14T05:32:53.719Z,36.63
2022-12-14T05:35:21.995Z,40.03
2022-12-14T05:37:50.123Z,37.30
2022-12-14T05:40:18.607Z,37.20
2022-12-14T05:42:49.862Z,37.85
2022-12-14T05:45:22.016Z,39.67
2022-12-14T05:47:49.978Z,33.63
2022-12-14T05:50:17.764Z,43.72
2022-12-14T05:52:45.649Z,38.80
2022-12-14T05:55:13.479Z,41.67
2022-12-14T05:57:41.600Z,40.53
2022-12-14T06:00:10.141Z,40.83
2022-12-14T06:02:37.994Z,39.22
2022-12-14T06:05:06.019Z,45.47
2022-12-14T06:07:34.040Z,41.00
2022-12-14T06:10:01.804Z,38.03
2022-12-14T06:12:30.115Z,42.78
2022-12-14T06:14:58.121Z,46.67
2022-12-14T06:17:26.400Z,40.53
2022-12-14T06:19:54.485Z,37.90
2022-12-14T06:22:22.134Z,40.38
2022-12-14T06:24:49.805Z,43.33
2022-12-14T06:27:17.813Z,44.08
2022-12-14T06:29:45.549Z,39.42
2022-12-14T06:32:13.331Z,43.55
2022-12-14T06:34:42.556Z,43.70
2022-12-14T06:37:10.658Z,60.80
2022-12-14T06:39:38.957Z,40.10
2022-12-14T06:42:07.405Z,36.08
2022-12-14T06:44:35.479Z,41.85
2022-12-14T06:47:03.825Z,39.20
2022-12-14T06:49:32.023Z,44.53
2022-12-14T06:51:59.977Z,27.67
2022-12-14T06:54:28.226Z,37.65
2022-12-14T06:56:56.280Z,47.53
2022-12-14T06:59:24.488Z,50.60
2022-12-14T07:01:52.424Z,40.47
2022-12-14T07:04:21.533Z,49.85
2022-12-14T07:06:49.659Z,45.55
2022-12-14T07:09:17.991Z,40.45
2022-12-14T07:11:45.994Z,41.50
2022-12-14T07:14:17.872Z,40.90
2022-12-14T07:16:48.593Z,42.13
2022-12-14T07:19:18.487Z,42.95
2022-12-14T07:21:46.629Z,38.50
2022-12-14T07:24:14.718Z,44.35
2022-12-14T07:26:42.692Z,43.25
2022-12-14T07:29:12.291Z,48.45
2022-12-14T07:31:40.410Z,48.75
2022-12-14T07:34:10.930Z,55.00
2022-12-14T07:36:38.766Z,46.38
2022-12-14T07:39:06.733Z,62.22
2022-12-14T07:41:34.515Z,48.47
2022-12-14T07:44:02.664Z,50.92
2022-12-14T07:46:32.361Z,41.67
2022-12-14T07:49:01.961Z,40.42
2022-12-14T07:51:38.403Z,45.60
2022-12-14T07:54:07.307Z,45.78
2022-12-14T07:56:38.170Z,44.85
2022-12-14T07:59:08.622Z,39.45
2022-12-14T08:01:37.367Z,37.55
2022-12-14T08:04:07.818Z,36.88
2022-12-14T08:06:36.215Z,30.23
2022-12-14T08:09:05.599Z,38.00
2022-12-14T08:11:33.588Z,41.65
2022-12-14T08:14:04.489Z,39.83
2022-12-14T08:16:33.714Z,30.23
2022-12-14T08:19:02.304Z,38.30
2022-12-14T08:21:31.099Z,34.13
2022-12-14T08:23:59.747Z,28.02
2022-12-14T08:26:34.873Z,36.40
2022-12-14T08:29:04.867Z,38.25
2022-12-14T08:31:33.395Z,31.83
2022-12-14T08:34:02.345Z,26.33
2022-12-14T08:36:33.223Z,40.25
2022-12-14T08:39:04.006Z,35.33
2022-12-14T08:41:32.619Z,41.95
2022-12-14T08:44:02.448Z,39.35
2022-12-14T08:46:32.290Z,41.58
2022-12-14T08:49:00.588Z,39.13
2022-12-14T08:51:28.829Z,39.33
2022-12-14T08:53:58.339Z,34.13
2022-12-14T08:56:28.231Z,34.33
2022-12-14T08:58:57.008Z,34.13
2022-12-14T09:01:32.901Z,28.38
2022-12-14T09:04:07.856Z,34.22
2022-12-14T09:06:39.023Z,38.88
2022-12-14T09:09:15.680Z,32.38
2022-12-14T09:11:45.721Z,35.90
2022-12-14T09:14:14.486Z,32.55
2022-12-14T09:16:42.949Z,35.38
2022-12-14T09:19:13.036Z,33.85
2022-12-14T09:21:41.149Z,36.47
2022-12-14T09:24:10.459Z,44.25
2022-12-14T09:26:38.761Z,35.97
2022-12-14T09:29:06.877Z,39.65
2022-12-14T09:31:35.290Z,40.45
2022-12-14T09:34:04.070Z,36.08
2022-12-14T09:36:34.812Z,37.47
2022-12-14T09:39:04.047Z,33.95
2022-12-14T09:41:34.941Z,40.38
2022-12-14T09:44:13.011Z,31.20
2022-12-14T09:47:05.598Z,33.47
2022-12-14T09:49:39.199Z,36.45
2022-12-14T09:54:39.503Z,30.13
2022-12-14T09:57:33.465Z,36.22
2022-12-14T10:00:01.242Z,39.50
2022-12-14T10:02:34.785Z,28.48
2022-12-14T10:05:27.360Z,36.65
2022-12-14T10:08:24.861Z,33.55
2022-12-14T10:10:58.043Z,35.30
2022-12-14T10:13:28.958Z,34.28
2022-12-14T10:16:04.219Z,31.77
2022-12-14T10:19:04.321Z,35.33
2022-12-14T10:21:51.468Z,39.25
2022-12-14T10:24:30.929Z,36.40
2022-12-14T10:27:00.607Z,35.88
2022-12-14T10:29:52.449Z,35.20
2022-12-14T10:32:32.874Z,37.33
2022-12-14T10:35:15.538Z,38.38
2022-12-14T10:38:12.233Z,30.77
2022-12-14T10:40:49.537Z,33.50
2022-12-14T10:43:34.012Z,32.03
2022-12-14T10:46:28.553Z,29.25
2022-12-14T10:49:04.397Z,32.22
2022-12-14T10:51:40.946Z,36.72
2022-12-14T10:54:45.362Z,25.83
2022-12-14T11:00:05.785Z,28.40
2022-12-14T11:02:41.791Z,23.80
2022-12-14T11:05:42.100Z,25.58
2022-12-14T11:08:10.080Z,32.45
2022-12-14T11:10:41.558Z,29.95
2022-12-14T11:13:15.681Z,20.77
2022-12-14T11:15:49.029Z,27.73
2022-12-14T11:18:16.882Z,28.40
2022-12-14T11:21:15.301Z,31.27
2022-12-14T11:23:47.305Z,26.30
2022-12-14T11:26:34.145Z,18.77
2022-12-14T11:29:16.176Z,21.30
2022-12-14T11:31:48.437Z,30.75
2022-12-14T11:34:24.332Z,23.33
2022-12-14T11:36:52.381Z,23.27
2022-12-14T11:39:25.699Z,24.27
2022-12-14T11:42:02.856Z,27.35
2022-12-14T11:44:34.838Z,24.20
2022-12-14T11:47:08.266Z,25.83
2022-12-14T11:49:43.300Z,23.05
2022-12-14T11:52:20.123Z,16.35
2022-12-14T11:55:02.759Z,23.13
2022-12-14T11:57:33.675Z,22.60
2022-12-14T12:00:21.771Z,25.17
2022-12-14T12:03:21.950Z,26.95
2022-12-14T12:05:51.266Z,24.98
2022-12-14T12:08:29.104Z,23.83
2022-12-14T12:11:02.797Z,21.88
2022-12-14T12:13:42.289Z,24.17
2022-12-14T12:16:17.265Z,27.13
2022-12-14T12:18:53.999Z,29.05
2022-12-14T12:21:26.671Z,24.65
2022-12-14T12:24:03.544Z,29.58
2022-12-14T12:26:37.172Z,24.40
2022-12-14T12:32:02.165Z,19.05
2022-12-14T12:34:39.227Z,17.10
2022-12-14T12:37:29.232Z,21.00
2022-12-14T12:40:04.215Z,15.85
2022-12-14T12:42:44.175Z,25.75
2022-12-14T12:45:24.887Z,17.98
2022-12-14T12:48:00.347Z,22.00
2022-12-14T12:50:35.164Z,18.15
2022-12-14T12:53:05.632Z,24.00
2022-12-14T12:55:55.281Z,15.68
2022-12-14T12:58:27.307Z,15.57
2022-12-14T13:01:25.694Z,14.75
2022-12-14T13:03:59.617Z,31.20
2022-12-14T13:06:35.182Z,18.50
2022-12-14T13:09:18.016Z,19.88
2022-12-14T13:11:46.527Z,16.77
2022-12-14T13:14:32.222Z,20.05
2022-12-14T13:17:04.746Z,19.17
2022-12-14T13:19:50.371Z,16.00
2022-12-14T13:22:29.985Z,18.83
2022-12-14T13:25:02.948Z,17.77
2022-12-14T13:27:49.456Z,15.77
2022-12-14T13:30:48.633Z,23.48
2022-12-14T13:33:45.609Z,26.02
2022-12-14T13:36:32.799Z,28.90
2022-12-14T13:39:10.964Z,28.75
2022-12-14T13:41:47.092Z,24.65
2022-12-14T13:44:41.907Z,31.35
2022-12-14T13:47:20.425Z,30.38
2022-12-14T13:52:48.248Z,18.67
2022-12-14T13:55:25.406Z,23.15
2022-12-14T13:57:54.778Z,26.35
2022-12-14T14:00:44.272Z,32.13
2022-12-14T14:03:34.063Z,22.50
2022-12-14T14:06:08.177Z,22.45
2022-12-14T14:08:42.084Z,19.75
2022-12-14T14:11:37.853Z,32.13
2022-12-14T14:14:22.627Z,26.30
2022-12-14T14:19:25.298Z,23.30
2022-12-14T14:22:24.215Z,24.17
2022-12-14T14:25:09.528Z,20.55
2022-12-14T14:27:50.067Z,31.05
2022-12-14T14:30:38.088Z,19.35
2022-12-14T14:33:46.142Z,19.77
2022-12-14T14:36:33.493Z,22.45
2022-12-14T14:39:14.517Z,20.45
2022-12-14T14:41:54.412Z,26.92
2022-12-14T14:44:31.007Z,24.00
2022-12-14T14:47:00.069Z,19.42
2022-12-14T14:49:34.125Z,21.65
2022-12-14T14:52:44.704Z,32.28
2022-12-14T14:55:53.071Z,22.85
2022-12-14T14:58:27.670Z,24.92
2022-12-14T15:04:10.616Z,36.30
2022-12-14T15:06:44.184Z,23.30
2022-12-14T15:09:26.324Z,25.13
2022-12-14T15:11:57.567Z,29.77
2022-12-14T15:14:43.345Z,31.67
2022-12-14T15:17:21.298Z,18.13
2022-12-14T15:19:53.338Z,23.27
2022-12-14T15:22:26.196Z,13.75
2022-12-14T15:25:00.856Z,14.20
2022-12-14T15:27:36.017Z,13.25
2022-12-14T15:30:12.743Z,14.35
2022-12-14T15:32:47.605Z,13.85
2022-12-14T15:35:21.551Z,13.20
2022-12-14T15:38:00.937Z,14.00
2022-12-14T15:40:36.151Z,10.75
2022-12-14T15:43:22.196Z,10.73
2022-12-14T15:45:53.751Z,12.85
2022-12-14T15:48:24.939Z,16.92
2022-12-14T15:50:55.947Z,14.95
2022-12-14T15:53:32.199Z,14.40
2022-12-14T15:56:09.975Z,16.95
2022-12-14T15:58:41.085Z,15.25
2022-12-14T16:01:18.807Z,31.90
2022-12-14T16:04:09.178Z,28.42
2022-12-14T16:06:45.723Z,25.40
2022-12-14T16:09:28.843Z,35.47
2022-12-14T16:12:09.913Z,37.95
2022-12-14T16:14:45.239Z,28.17
2022-12-14T16:17:16.567Z,30.70
2022-12-14T16:19:59.423Z,34.97
2022-12-14T16:22:32.381Z,30.13
2022-12-14T16:25:05.858Z,29.10
2022-12-14T16:27:50.340Z,33.55
2022-12-14T16:30:33.604Z,33.33
2022-12-14T16:33:29.390Z,40.07
2022-12-14T16:36:11.708Z,35.03
2022-12-14T16:38:58.073Z,35.38
2022-12-14T16:41:37.122Z,32.75
2022-12-14T16:44:08.820Z,37.75
2022-12-14T16:46:38.035Z,35.83
2022-12-14T16:49:20.975Z,28.30
2022-12-14T16:52:15.333Z,23.90
2022-12-14T16:57:16.301Z,30.15
2022-12-14T16:59:46.816Z,31.27
2022-12-14T17:02:35.905Z,32.60
2022-12-14T17:05:23.177Z,33.45
2022-12-14T17:07:51.523Z,32.00
2022-12-14T17:10:24.302Z,32.70
2022-12-14T17:12:56.139Z,32.50
2022-12-14T17:15:25.473Z,33.25
2022-12-14T17:17:55.803Z,34.75
2022-12-14T17:20:28.723Z,32.08
2022-12-14T17:23:02.502Z,30.15
2022-12-14T17:25:33.564Z,34.50
2022-12-14T17:28:02.444Z,35.35
2022-12-14T17:30:30.748Z,44.72
2022-12-14T17:32:59.430Z,38.50
2022-12-14T17:35:30.150Z,33.58
2022-12-14T17:38:01.508Z,33.55
2022-12-14T17:40:29.938Z,35.35
2022-12-14T17:42:59.060Z,33.00
2022-12-14T17:45:31.343Z,39.10
2022-12-14T17:47:59.639Z,31.25
2022-12-14T17:50:27.660Z,32.72
2022-12-14T17:52:58.940Z,44.33
2022-12-14T17:55:31.255Z,39.17
2022-12-14T17:58:00.475Z,36.70
2022-12-14T18:00:48.865Z,42.30
2022-12-14T18:03:18.179Z,34.90
2022-12-14T18:05:52.342Z,37.78
2022-12-14T18:08:22.378Z,41.05
2022-12-14T18:10:55.072Z,32.28
2022-12-14T18:13:23.255Z,42.77
2022-12-14T18:15:52.690Z,36.28
2022-12-14T18:18:24.086Z,40.75
2022-12-14T18:20:55.032Z,37.90
2022-12-14T18:23:23.249Z,33.80
2022-12-14T18:25:56.539Z,43.08
2022-12-14T18:28:25.388Z,38.40
2022-12-14T18:30:58.206Z,39.72
2022-12-14T18:33:28.068Z,31.98
2022-12-14T18:35:58.120Z,35.83
2022-12-14T18:38:30.971Z,47.72
2022-12-14T18:41:00.871Z,38.65
2022-12-14T18:43:29.899Z,38.50
2022-12-14T18:45:59.311Z,46.00
2022-12-14T18:48:27.323Z,37.80
2022-12-14T18:50:56.135Z,37.45
2022-12-14T18:53:26.099Z,37.38
2022-12-14T18:55:54.580Z,40.88
2022-12-14T18:58:25.531Z,35.13
2022-12-14T19:00:58.979Z,35.45
2022-12-14T19:03:31.666Z,39.53
2022-12-14T19:06:42.115Z,35.78
2022-12-14T19:08:57.346Z,36.47
2022-12-14T19:11:40.245Z,38.45
2022-12-14T19:14:10.670Z,36.38
2022-12-14T19:16:39.031Z,41.30
2022-12-14T19:19:07.365Z,46.72
2022-12-14T19:21:35.230Z,37.95
2022-12-14T19:24:08.798Z,40.63
2022-12-14T19:29:07.790Z,36.45
2022-12-14T19:31:36.264Z,38.67
2022-12-14T19:34:06.998Z,39.35
2022-12-14T19:36:35.137Z,42.35
2022-12-14T19:39:03.203Z,46.90
2022-12-14T19:41:31.528Z,32.83
2022-12-14T19:43:59.874Z,40.90
2022-12-14T19:46:28.580Z,41.47
2022-12-14T19:48:57.992Z,44.40
2022-12-14T19:51:26.910Z,40.92
2022-12-14T19:53:55.617Z,46.85
2022-12-14T19:56:24.223Z,40.67
2022-12-14T19:58:52.441Z,41.15
2022-12-14T20:01:23.321Z,38.72
2022-12-14T20:03:51.464Z,36.63
2022-12-14T20:06:20.068Z,45.53
2022-12-14T20:08:49.564Z,45.05
2022-12-14T20:11:17.805Z,50.45
2022-12-14T20:13:47.137Z,48.42
2022-12-14T20:16:19.430Z,41.75
2022-12-14T20:18:48.097Z,41.42
2022-12-14T20:21:21.841Z,38.72
2022-12-14T20:23:51.153Z,45.25
2022-12-14T20:26:21.698Z,41.45
2022-12-14T20:28:51.848Z,36.75
2022-12-14T20:31:20.998Z,44.30
2022-12-14T20:33:50.462Z,42.38
2022-12-14T20:36:19.371Z,45.45
2022-12-14T20:38:49.298Z,42.35
2022-12-14T20:41:18.160Z,37.10
2022-12-14T20:43:46.476Z,47.50
2022-12-14T20:46:27.981Z,45.42
2022-12-14T20:48:57.058Z,47.72
2022-12-14T20:51:25.253Z,43.40
2022-12-14T20:53:53.468Z,42.53
2022-12-14T20:56:22.191Z,49.72
2022-12-14T20:58:50.318Z,36.55
2022-12-14T21:01:20.981Z,29.23
2022-12-14T21:03:50.383Z,26.42
2022-12-14T21:06:21.453Z,24.20
2022-12-14T21:09:05.439Z,22.15
2022-12-14T21:11:54.585Z,22.80
2022-12-14T21:14:26.863Z,24.75
2022-12-14T21:16:55.587Z,26.05
2022-12-14T21:19:24.719Z,16.95
2022-12-14T21:21:54.050Z,17.02
2022-12-14T21:25:01.005Z,15.77
2022-12-14T21:27:18.304Z,26.45
2022-12-14T21:29:46.855Z,30.42
2022-12-14T21:32:15.828Z,16.90
2022-12-14T21:34:43.742Z,28.73
2022-12-14T21:37:13.504Z,22.75
2022-12-14T21:39:41.814Z,26.73
2022-12-14T21:42:15.513Z,27.20
2022-12-14T21:47:24.733Z,35.95
2022-12-14T21:49:53.628Z,33.33
2022-12-14T21:52:26.189Z,34.33
2022-12-14T21:54:54.384Z,39.33
2022-12-14T21:57:42.835Z,38.15
2022-12-14T22:00:19.134Z,39.35
2022-12-14T22:02:47.575Z,33.90
2022-12-14T22:05:15.928Z,34.97
2022-12-14T22:07:44.505Z,42.92
2022-12-14T22:10:13.364Z,39.15
2022-12-14T22:12:41.843Z,52.25
2022-12-14T22:15:10.756Z,45.38
2022-12-14T22:17:38.824Z,43.42
2022-12-14T22:20:07.358Z,43.13
2022-12-14T22:22:35.656Z,39.60
2022-12-14T22:25:04.442Z,41.88
2022-12-14T22:27:32.724Z,38.40
2022-12-14T22:30:00.959Z,44.83
2022-12-14T22:32:29.157Z,53.13
2022-12-14T22:34:57.399Z,49.17
2022-12-14T22:37:26.300Z,48.53
2022-12-14T22:39:54.531Z,51.17
2022-12-14T22:42:22.943Z,43.55
2022-12-14T22:44:50.883Z,48.30
2022-12-14T22:47:19.210Z,44.90
2022-12-14T22:49:47.653Z,43.50
2022-12-14T22:52:21.287Z,43.88
2022-12-14T22:54:54.561Z,41.85
2022-12-14T22:57:23.403Z,42.22
2022-12-14T23:00:05.298Z,44.33
2022-12-14T23:02:34.086Z,48.28
2022-12-14T23:05:02.662Z,36.45
2022-12-14T23:07:34.349Z,43.80
2022-12-14T23:10:20.938Z,51.67
2022-12-14T23:13:07.194Z,49.25
2022-12-14T23:15:53.904Z,46.60
2022-12-14T23:18:40.506Z,46.38
2022-12-14T23:21:28.781Z,42.20
2022-12-14T23:24:15.249Z,36.25
2022-12-14T23:27:07.246Z,44.22
2022-12-14T23:29:55.749Z,44.20
2022-12-14T23:32:42.429Z,39.45
2022-12-14T23:35:28.604Z,39.92
2022-12-14T23:38:14.887Z,39.53
2022-12-14T23:41:01.237Z,38.58
2022-12-14T23:43:48.066Z,37.55
2022-12-14T23:46:34.662Z,35.22
2022-12-14T23:49:21.228Z,31.13
2022-12-14T23:52:07.976Z,31.83
2022-12-14T23:54:54.093Z,33.95
2022-12-14T23:57:41.317Z,32.70
